Time;durP1;ratioP1;P1;durP2;ratioP2;P2;SDS_P1;SDS_P2;PMS_P1;PMS_P2;Temp;Humidity;BMP_temperature;BMP_pressure;BME280_temperature;BME280_humidity;BME280_pressure;Samples;Min_cycle;Max_cycle;Signal;HPM_P1;HPM_P2
2023/09/19 00:01:57;;;;;;;1.77;0.97;;;;;;;20.24;61.85;100297.00;5037874;27;96722;-58
2023/09/19 00:04:28;;;;;;;1.23;0.90;;;;;;;20.23;61.90;100298.28;5037931;27;98276;-55
2023/09/19 00:06:54;;;;;;;1.00;0.83;;;;;;;20.20;62.00;100307.81;5039933;27;97436;-56
2023/09/19 00:09:19;;;;;;;2.27;0.97;;;;;;;20.19;61.73;100307.06;5040006;27;96810;-56
2023/09/19 00:11:47;;;;;;;1.30;0.87;;;;;;;20.18;61.90;100310.41;5036482;27;97599;-57
2023/09/19 00:14:14;;;;;;;1.57;0.90;;;;;;;20.16;61.86;100318.59;5038151;27;97115;-56
2023/09/19 00:16:41;;;;;;;0.90;0.77;;;;;;;20.16;62.09;100319.34;5039129;27;97236;-55
2023/09/19 00:19:07;;;;;;;1.60;0.93;;;;;;;20.16;61.84;100321.41;5038167;27;97842;-57
2023/09/19 00:21:32;;;;;;;2.60;0.83;;;;;;;20.14;61.82;100313.59;5040971;27;97532;-56
2023/09/19 00:23:58;;;;;;;1.40;1.10;;;;;;;20.11;61.92;100305.63;5038105;27;97294;-56
2023/09/19 00:26:23;;;;;;;5.73;1.13;;;;;;;20.10;62.10;100301.31;5036510;27;97008;-56
2023/09/19 00:28:52;;;;;;;2.00;1.07;;;;;;;20.10;62.04;100295.75;5039298;27;98963;-57
2023/09/19 00:31:18;;;;;;;2.13;1.60;;;;;;;20.05;62.07;100303.03;5037920;27;97356;-55
2023/09/19 00:33:43;;;;;;;1.83;1.40;;;;;;;20.03;62.30;100300.06;5037541;27;97146;-55
2023/09/19 00:36:08;;;;;;;3.10;1.23;;;;;;;20.03;62.18;100304.91;5036595;27;97759;-56
2023/09/19 00:38:34;;;;;;;1.50;1.10;;;;;;;20.01;62.29;100313.84;5039426;27;97002;-56
2023/09/19 00:41:02;;;;;;;2.30;1.40;;;;;;;20.02;62.29;100317.38;5037495;27;97185;-56
2023/09/19 00:43:29;;;;;;;2.43;1.83;;;;;;;19.99;62.27;100310.88;5036637;27;98208;-55
2023/09/19 00:45:56;;;;;;;3.30;1.60;;;;;;;19.99;62.25;100308.09;5035654;27;97153;-56
2023/09/19 00:48:22;;;;;;;2.57;1.27;;;;;;;20.00;62.44;100309.59;5039731;27;96694;-56
2023/09/19 00:50:49;;;;;;;2.13;1.47;;;;;;;20.01;62.21;100321.47;5036072;27;97549;-55
2023/09/19 00:53:19;;;;;;;1.67;1.57;;;;;;;19.97;62.29;100313.50;5036592;27;97231;-56
2023/09/19 00:55:48;;;;;;;2.77;1.77;;;;;;;19.97;62.28;100326.72;5037033;27;96734;-54
2023/09/19 00:58:13;;;;;;;1.50;1.40;;;;;;;19.96;62.41;100328.75;5037778;27;96769;-55
2023/09/19 01:00:40;;;;;;;1.40;1.20;;;;;;;19.98;62.34;100328.97;5038507;27;97252;-57
2023/09/19 01:03:06;;;;;;;1.50;1.40;;;;;;;19.97;62.33;100340.69;5036990;27;97061;-56
2023/09/19 01:05:33;;;;;;;4.70;1.70;;;;;;;19.96;62.38;100339.94;5037043;27;96859;-55
2023/09/19 01:07:58;;;;;;;2.47;1.10;;;;;;;19.95;62.52;100343.28;5038321;27;96764;-57
2023/09/19 01:10:25;;;;;;;1.40;1.30;;;;;;;19.95;62.48;100343.28;5039666;27;97263;-56
2023/09/19 01:13:27;;;;;;;2.37;1.47;;;;;;;19.93;62.97;100343.13;5038622;27;99891;-56
2023/09/19 01:16:28;;;;;;;3.80;1.37;;;;;;;19.87;63.09;100340.56;5042212;27;97190;-56
2023/09/19 01:19:30;;;;;;;1.73;1.47;;;;;;;19.89;63.05;100349.09;5039766;27;97068;-56
2023/09/19 01:22:06;;;;;;;3.93;1.53;;;;;;;19.92;62.52;100344.44;5042726;27;96780;-58
2023/09/19 01:25:09;;;;;;;4.47;1.57;;;;;;;19.92;62.96;100347.97;5042611;27;97175;-56
2023/09/19 01:27:53;;;;;;;2.00;1.80;;;;;;;19.92;62.87;100361.19;5041757;27;97020;-56
2023/09/19 01:30:24;;;;;;;1.53;1.43;;;;;;;19.97;62.56;100358.19;5039074;27;97112;-56
2023/09/19 01:32:52;;;;;;;1.90;1.70;;;;;;;19.98;62.58;100356.88;5039099;27;97179;-56
2023/09/19 01:35:18;;;;;;;2.30;1.60;;;;;;;19.99;62.51;100363.19;5039892;27;97409;-55
2023/09/19 01:37:44;;;;;;;1.93;1.37;;;;;;;20.01;62.51;100358.53;5037849;27;97251;-56
2023/09/19 01:40:18;;;;;;;2.43;2.07;;;;;;;20.02;62.60;100364.88;5040513;27;96856;-56
2023/09/19 01:43:22;;;;;;;3.20;1.60;;;;;;;19.99;63.02;100380.69;5041129;27;97043;-55
2023/09/19 01:46:04;;;;;;;2.03;1.80;;;;;;;20.02;62.88;100374.00;5031534;27;97073;-56
2023/09/19 01:49:03;;;;;;;6.93;1.93;;;;;;;20.02;63.12;100384.41;5039671;27;97176;-57
2023/09/19 01:51:56;;;;;;;2.47;1.80;;;;;;;19.99;63.22;100375.13;5041381;27;98611;-55
2023/09/19 01:54:30;;;;;;;2.03;1.73;;;;;;;20.02;62.83;100382.38;5038356;27;96741;-54
2023/09/19 01:57:17;;;;;;;2.37;1.80;;;;;;;20.01;62.89;100374.53;5036603;27;96728;-56
2023/09/19 01:59:54;;;;;;;2.43;2.20;;;;;;;20.01;62.72;100371.75;5041485;27;96646;-56
2023/09/19 02:02:22;;;;;;;2.20;1.90;;;;;;;20.00;62.44;100379.41;5040042;27;97011;-54
2023/09/19 02:04:48;;;;;;;2.23;1.90;;;;;;;19.99;62.60;100375.13;5039319;27;97249;-56
2023/09/19 02:07:15;;;;;;;2.20;1.93;;;;;;;19.97;62.51;100377.72;5036110;27;98958;-56
2023/09/19 02:09:42;;;;;;;2.50;1.97;;;;;;;19.96;62.39;100387.41;5040144;27;97072;-56
2023/09/19 02:12:09;;;;;;;3.90;1.90;;;;;;;19.93;62.55;100380.16;5040504;27;97290;-56
2023/09/19 02:14:35;;;;;;;2.37;2.00;;;;;;;19.92;62.40;100384.25;5041420;27;97576;-56
2023/09/19 02:17:03;;;;;;;3.67;2.17;;;;;;;19.91;62.28;100402.34;5040216;27;96799;-56
2023/09/19 02:19:29;;;;;;;1.60;1.50;;;;;;;19.89;62.44;100410.53;5036498;27;97133;-56
2023/09/19 02:21:55;;;;;;;2.50;1.40;;;;;;;19.87;62.25;100401.22;5039514;27;96983;-56
2023/09/19 02:24:20;;;;;;;3.10;1.83;;;;;;;19.84;62.27;100405.88;5038257;27;97224;-57
2023/09/19 02:26:47;;;;;;;1.63;1.37;;;;;;;19.82;62.48;100407.75;5040003;27;97023;-55
2023/09/19 02:29:12;;;;;;;1.77;1.67;;;;;;;19.82;62.39;100407.75;5038133;27;98522;-56
2023/09/19 02:31:38;;;;;;;3.80;1.73;;;;;;;19.82;62.44;100408.50;5038529;27;97125;-56
2023/09/19 02:34:06;;;;;;;2.87;1.67;;;;;;;19.81;62.45;100417.44;5037653;27;97032;-56
2023/09/19 02:36:46;;;;;;;2.93;1.50;;;;;;;19.78;62.04;100410.19;5036318;27;97637;-56
2023/09/19 02:39:12;;;;;;;1.60;1.50;;;;;;;19.76;62.18;100415.59;5040018;27;97276;-56
2023/09/19 02:41:38;;;;;;;2.97;2.30;;;;;;;19.74;62.16;100401.44;5039393;27;97434;-56
2023/09/19 02:44:07;;;;;;;2.83;1.50;;;;;;;19.74;62.16;100421.00;5041339;27;97187;-56
2023/09/19 02:46:33;;;;;;;4.33;1.77;;;;;;;19.71;62.08;100416.53;5039311;27;103125;-56
2023/09/19 02:48:59;;;;;;;2.90;2.10;;;;;;;19.71;61.97;100413.72;5038670;27;97209;-57
2023/09/19 02:51:24;;;;;;;2.40;1.50;;;;;;;19.68;61.94;100414.88;5039000;27;97127;-56
2023/09/19 02:53:52;;;;;;;14.17;1.97;;;;;;;19.67;61.74;100419.69;5038814;27;97176;-56
2023/09/19 02:56:18;;;;;;;3.10;2.13;;;;;;;19.64;61.82;100412.44;5036152;27;97086;-56
2023/09/19 02:58:44;;;;;;;1.70;1.60;;;;;;;19.65;61.57;100413.19;5039417;27;96979;-56
2023/09/19 03:01:11;;;;;;;2.13;1.73;;;;;;;19.66;61.53;100425.84;5038719;27;97034;-58
2023/09/19 03:03:38;;;;;;;2.73;1.57;;;;;;;19.65;61.56;100429.94;5040723;27;97171;-56
2023/09/19 03:06:05;;;;;;;1.90;1.60;;;;;;;19.66;61.44;100434.94;5038236;27;97242;-56
2023/09/19 03:08:31;;;;;;;4.03;1.50;;;;;;;19.64;61.28;100440.34;5037912;27;98008;-56
2023/09/19 03:10:56;;;;;;;2.93;1.50;;;;;;;19.63;61.40;100440.91;5041268;27;97076;-56
2023/09/19 03:13:22;;;;;;;4.50;1.93;;;;;;;19.60;61.28;100445.56;5037983;27;97046;-55
2023/09/19 03:15:49;;;;;;;3.00;1.97;;;;;;;19.58;60.92;100439.81;5040156;27;99215;-56
2023/09/19 03:18:14;;;;;;;1.73;1.30;;;;;;;19.58;61.20;100448.19;5037185;27;97460;-56
2023/09/19 03:20:39;;;;;;;2.80;1.90;;;;;;;19.59;61.01;100451.72;5037279;27;97236;-56
2023/09/19 03:23:06;;;;;;;5.90;2.20;;;;;;;19.61;60.86;100452.66;5036647;27;96910;-57
2023/09/19 03:25:35;;;;;;;4.77;1.70;;;;;;;19.61;60.83;100451.91;5037482;27;97857;-56
2023/09/19 03:28:01;;;;;;;7.80;2.07;;;;;;;19.59;61.13;100458.06;5036825;27;96777;-56
2023/09/19 03:30:31;;;;;;;1.70;1.43;;;;;;;19.56;60.98;100450.78;5036101;27;97610;-56
2023/09/19 03:32:56;;;;;;;2.27;1.97;;;;;;;19.57;61.17;100449.47;5036204;27;97088;-56
2023/09/19 03:35:22;;;;;;;4.27;1.73;;;;;;;19.59;60.81;100454.50;5035655;27;97207;-56
2023/09/19 03:37:47;;;;;;;2.33;1.70;;;;;;;19.59;60.84;100458.06;5036571;27;96898;-56
2023/09/19 03:40:13;;;;;;;2.67;1.60;;;;;;;19.58;61.00;100453.00;5037475;27;97219;-56
2023/09/19 03:42:42;;;;;;;2.50;1.50;;;;;;;19.58;60.88;100453.75;5037082;27;96819;-56
2023/09/19 03:45:11;;;;;;;2.83;1.50;;;;;;;19.60;60.97;100465.09;5036237;27;96665;-55
2023/09/19 03:47:38;;;;;;;3.83;1.97;;;;;;;19.59;60.81;100455.25;5037674;27;96998;-55
2023/09/19 03:50:05;;;;;;;5.43;2.07;;;;;;;19.61;60.72;100460.28;5039956;27;97217;-54
2023/09/19 03:52:30;;;;;;;2.83;1.57;;;;;;;19.59;60.79;100466.44;5032126;27;97068;-56
2023/09/19 03:54:55;;;;;;;2.50;1.60;;;;;;;19.57;60.80;100459.91;5037144;27;96981;-55
2023/09/19 03:57:21;;;;;;;3.40;1.50;;;;;;;19.59;60.81;100469.22;5035306;27;97131;-56
2023/09/19 03:59:47;;;;;;;7.00;1.70;;;;;;;19.59;60.60;100463.63;5037750;27;97047;-56
2023/09/19 04:02:21;;;;;;;3.17;1.50;;;;;;;19.59;60.65;100471.25;5036027;27;99338;-56
2023/09/19 04:04:50;;;;;;;2.40;1.33;;;;;;;19.61;60.44;100479.81;5033770;27;96657;-55
2023/09/19 04:07:16;;;;;;;3.50;1.43;;;;;;;19.64;60.55;100475.88;5036381;27;97143;-54
2023/09/19 04:09:42;;;;;;;6.33;1.83;;;;;;;19.62;60.29;100481.28;5036324;27;96701;-56
2023/09/19 04:12:11;;;;;;;3.03;1.50;;;;;;;19.63;60.30;100483.53;5037162;27;96874;-55
2023/09/19 04:14:36;;;;;;;6.30;2.00;;;;;;;19.64;60.38;100492.63;5038948;27;97453;-56
2023/09/19 04:17:02;;;;;;;3.17;1.40;;;;;;;19.62;60.44;100482.03;5037038;27;98217;-56
2023/09/19 04:19:27;;;;;;;5.40;1.47;;;;;;;19.61;60.12;100485.41;5040574;27;97618;-56
2023/09/19 04:21:53;;;;;;;3.50;1.60;;;;;;;19.60;60.29;100490.22;5035414;27;97629;-57
2023/09/19 04:24:19;;;;;;;3.33;1.80;;;;;;;19.59;60.19;100497.13;5035482;27;110026;-56
2023/09/19 04:26:45;;;;;;;4.23;1.60;;;;;;;19.59;59.97;100497.13;5037635;27;97541;-56
2023/09/19 04:29:11;;;;;;;1.43;1.33;;;;;;;19.56;60.06;100497.47;5036989;27;96788;-56
2023/09/19 04:31:37;;;;;;;1.47;1.20;;;;;;;19.56;60.03;100494.69;5038992;27;97096;-57
2023/09/19 04:34:03;;;;;;;7.73;1.67;;;;;;;19.53;59.73;100495.81;5036179;27;97321;-55
2023/09/19 04:36:29;;;;;;;4.97;1.50;;;;;;;19.51;59.69;100492.81;5037689;27;97161;-56
2023/09/19 04:38:55;;;;;;;3.37;1.27;;;;;;;19.47;59.94;100507.16;5038857;27;97036;-56
2023/09/19 04:41:22;;;;;;;5.40;1.53;;;;;;;19.46;59.70;100502.91;5037194;27;97112;-56
2023/09/19 04:43:47;;;;;;;2.50;1.83;;;;;;;19.44;59.99;100508.25;5037377;27;98847;-55
2023/09/19 04:46:14;;;;;;;3.73;1.80;;;;;;;19.41;59.89;100501.78;5038256;27;97464;-55
2023/09/19 04:48:39;;;;;;;4.17;1.57;;;;;;;19.39;59.67;100509.22;5035535;27;97030;-55
2023/09/19 04:51:06;;;;;;;3.77;1.80;;;;;;;19.39;59.90;100518.34;5037516;27;96981;-55
2023/09/19 04:53:31;;;;;;;2.87;1.40;;;;;;;19.40;59.71;100517.00;5037906;27;107085;-56
2023/09/19 04:55:58;;;;;;;7.70;1.50;;;;;;;19.39;59.60;100517.59;5036142;27;108770;-57
2023/09/19 04:58:23;;;;;;;4.57;1.53;;;;;;;19.38;59.64;100511.25;5034831;27;97325;-56
2023/09/19 05:00:51;;;;;;;3.70;1.60;;;;;;;19.37;59.78;100518.13;5037353;27;97069;-55
2023/09/19 05:03:16;;;;;;;2.80;1.47;;;;;;;19.33;59.76;100508.63;5035980;27;96955;-54
2023/09/19 05:05:42;;;;;;;2.40;1.40;;;;;;;19.31;59.61;100502.84;5037120;27;96602;-56
2023/09/19 05:08:09;;;;;;;3.27;1.40;;;;;;;19.27;59.54;100510.81;5037388;27;97364;-55
2023/09/19 05:10:37;;;;;;;1.60;1.30;;;;;;;19.26;59.62;100518.44;5035509;27;97060;-54
2023/09/19 05:13:07;;;;;;;5.67;1.70;;;;;;;19.25;59.62;100514.19;5035247;27;97950;-55
2023/09/19 05:15:34;;;;;;;2.60;1.70;;;;;;;19.24;59.45;100509.16;5035472;27;97719;-54
2023/09/19 05:17:59;;;;;;;4.20;1.73;;;;;;;19.24;59.63;100509.16;5036582;27;96905;-55
2023/09/19 05:20:33;;;;;;;4.60;1.53;;;;;;;19.24;59.52;100514.75;5035562;27;97110;-54
2023/09/19 05:23:01;;;;;;;4.70;1.87;;;;;;;19.19;59.50;100524.78;5036178;27;96993;-55
2023/09/19 05:25:29;;;;;;;4.40;2.00;;;;;;;19.18;59.61;100526.06;5038175;27;97182;-55
2023/09/19 05:27:57;;;;;;;5.40;2.20;;;;;;;19.18;59.52;100533.69;5037320;27;97159;-55
2023/09/19 05:30:23;;;;;;;3.27;1.90;;;;;;;19.13;59.57;100532.56;5034610;27;97263;-55
2023/09/19 05:32:48;;;;;;;5.73;1.80;;;;;;;19.14;59.78;100539.63;5035423;27;97454;-55
2023/09/19 05:35:14;;;;;;;2.50;1.60;;;;;;;19.11;59.64;100540.00;5038317;27;99891;-54
2023/09/19 05:37:39;;;;;;;3.53;1.53;;;;;;;19.10;59.96;100550.41;5036637;27;96914;-54
2023/09/19 05:40:07;;;;;;;2.90;1.70;;;;;;;19.09;59.82;100560.06;5038164;27;97161;-55
2023/09/19 05:42:32;;;;;;;3.13;1.43;;;;;;;19.11;59.74;100565.13;5036895;27;96741;-54
2023/09/19 05:44:58;;;;;;;5.53;2.20;;;;;;;19.07;59.92;100556.34;5036026;27;103326;-55
2023/09/19 05:47:24;;;;;;;2.30;1.30;;;;;;;19.06;59.64;100568.81;5041329;27;97119;-53
2023/09/19 05:49:50;;;;;;;7.70;2.07;;;;;;;19.05;59.81;100578.47;5039638;27;96682;-55
2023/09/19 05:52:17;;;;;;;4.47;1.63;;;;;;;19.04;59.73;100591.69;5041477;27;97245;-54
2023/09/19 05:54:43;;;;;;;3.20;1.83;;;;;;;19.01;59.78;100587.19;5037514;27;99449;-54
2023/09/19 05:57:08;;;;;;;2.13;1.70;;;;;;;19.00;59.99;100593.34;5042277;27;96628;-55
2023/09/19 05:59:34;;;;;;;4.27;1.97;;;;;;;18.96;59.85;100607.63;5041928;27;97270;-54
2023/09/19 06:01:59;;;;;;;8.57;2.57;;;;;;;18.98;59.86;100621.75;5040109;27;97730;-55
2023/09/19 06:04:25;;;;;;;4.50;1.80;;;;;;;18.98;59.77;100605.03;5037586;27;97519;-54
2023/09/19 06:06:51;;;;;;;2.90;1.70;;;;;;;18.96;59.87;100590.16;5040551;27;97163;-56
2023/09/19 06:09:17;;;;;;;6.70;2.47;;;;;;;18.98;59.90;100593.88;5038570;27;97101;-55
2023/09/19 06:11:42;;;;;;;3.43;1.90;;;;;;;18.97;59.64;100594.44;5037839;27;96786;-55
2023/09/19 06:14:10;;;;;;;4.30;1.83;;;;;;;18.94;59.67;100590.69;5042757;27;97372;-54
2023/09/19 06:16:35;;;;;;;3.97;2.10;;;;;;;18.95;59.86;100577.50;5039474;27;96798;-55
2023/09/19 06:19:01;;;;;;;3.77;2.50;;;;;;;18.97;59.62;100589.59;5039939;27;96869;-55
2023/09/19 06:21:27;;;;;;;8.17;2.40;;;;;;;18.99;59.62;100584.22;5038523;27;96624;-54
2023/09/19 06:23:57;;;;;;;2.90;2.00;;;;;;;19.00;59.54;100584.97;5037338;27;97289;-55
2023/09/19 06:26:23;;;;;;;7.23;2.20;;;;;;;19.04;59.58;100582.56;5041139;27;97165;-54
2023/09/19 06:28:49;;;;;;;4.40;2.13;;;;;;;19.07;59.69;100592.59;5038146;27;97369;-55
2023/09/19 06:31:14;;;;;;;3.03;2.00;;;;;;;19.09;59.56;100593.53;5041294;27;96837;-55
2023/09/19 06:33:39;;;;;;;3.87;2.10;;;;;;;19.08;59.39;100586.47;5036632;27;97137;-56
2023/09/19 06:36:05;;;;;;;3.17;2.20;;;;;;;19.07;59.40;100590.56;5038905;27;97039;-55
2023/09/19 06:38:34;;;;;;;4.07;2.07;;;;;;;19.10;59.50;100599.88;5033032;27;97668;-56
2023/09/19 06:41:01;;;;;;;4.03;1.50;;;;;;;19.12;59.17;100602.84;5029352;27;97395;-56
2023/09/19 06:43:26;;;;;;;3.43;1.97;;;;;;;19.15;59.53;100602.50;5031504;27;97926;-56
2023/09/19 06:45:51;;;;;;;5.20;2.20;;;;;;;19.20;59.23;100603.59;5031726;27;96863;-55
2023/09/19 06:48:18;;;;;;;7.20;2.47;;;;;;;19.21;59.16;100599.53;5028610;27;98011;-56
2023/09/19 06:50:44;;;;;;;5.23;2.40;;;;;;;19.26;59.09;100616.09;5028517;27;97582;-55
2023/09/19 06:53:10;;;;;;;6.47;2.53;;;;;;;19.32;58.94;100611.09;5030888;27;97184;-56
2023/09/19 06:55:36;;;;;;;5.10;1.80;;;;;;;19.38;58.64;100597.00;5047540;27;96680;-56
2023/09/19 06:58:02;;;;;;;4.10;1.90;;;;;;;19.42;58.71;100614.84;5032534;27;97588;-56
2023/09/19 07:00:28;;;;;;;4.53;1.80;;;;;;;19.46;58.68;100610.97;5033164;27;97378;-56
2023/09/19 07:03:03;;;;;;;5.13;1.80;;;;;;;19.50;58.28;100606.50;5026499;27;97673;-56
2023/09/19 07:05:30;;;;;;;5.23;2.20;;;;;;;19.53;58.59;100619.34;5030919;27;97113;-56
2023/09/19 07:07:58;;;;;;;4.10;2.67;;;;;;;19.54;58.37;100618.06;5032226;27;98430;-56
2023/09/19 07:10:25;;;;;;;5.17;1.80;;;;;;;19.53;58.47;100619.34;5032102;27;96841;-55
2023/09/19 07:13:02;;;;;;;4.30;1.90;;;;;;;19.57;58.01;100613.41;5033946;27;97315;-55
2023/09/19 07:15:29;;;;;;;3.30;1.70;;;;;;;19.58;58.19;100626.78;5030367;27;97591;-56
2023/09/19 07:17:56;;;;;;;3.40;1.87;;;;;;;19.63;58.28;100616.75;5028158;27;97585;-56
2023/09/19 07:20:22;;;;;;;3.73;1.73;;;;;;;19.63;57.95;100625.13;5028981;27;97766;-56
2023/09/19 07:22:50;;;;;;;8.43;1.73;;;;;;;19.64;57.89;100634.97;5030627;27;98474;-56
2023/09/19 07:25:16;;;;;;;4.07;1.90;;;;;;;19.66;57.75;100630.34;5038092;27;97181;-56
2023/09/19 07:27:41;;;;;;;6.60;1.93;;;;;;;19.68;57.52;100644.47;5038316;27;97079;-56
2023/09/19 07:30:08;;;;;;;7.50;1.70;;;;;;;19.67;57.47;100645.78;5033996;27;99988;-55
2023/09/19 07:32:36;;;;;;;7.37;1.60;;;;;;;19.69;57.58;100648.03;5028126;27;97527;-55
2023/09/19 07:35:01;;;;;;;4.70;1.60;;;;;;;19.71;57.44;100642.63;5032763;27;97345;-56
2023/09/19 07:37:27;;;;;;;3.03;1.43;;;;;;;19.73;57.29;100645.59;5031152;27;97127;-56
2023/09/19 07:39:52;;;;;;;4.20;1.53;;;;;;;19.75;57.05;100651.38;5031140;27;98322;-56
2023/09/19 07:42:17;;;;;;;7.40;2.00;;;;;;;19.77;56.97;100657.16;5037306;27;97606;-56
2023/09/19 07:44:46;;;;;;;2.90;1.37;;;;;;;19.77;57.09;100654.34;5037331;27;97535;-56
2023/09/19 07:47:13;;;;;;;3.90;2.00;;;;;;;19.79;56.88;100658.09;5038100;27;97058;-56
2023/09/19 07:49:39;;;;;;;4.03;1.10;;;;;;;19.80;56.72;100667.97;5036983;27;98162;-55
2023/09/19 07:52:04;;;;;;;5.53;1.70;;;;;;;19.86;56.73;100662.19;5037961;27;97065;-55
2023/09/19 07:54:35;;;;;;;3.73;1.30;;;;;;;19.89;56.65;100672.25;5035125;27;97107;-54
2023/09/19 07:57:01;;;;;;;2.80;1.10;;;;;;;19.89;56.35;100672.25;5036553;27;96642;-56
2023/09/19 07:59:26;;;;;;;2.40;1.43;;;;;;;19.87;56.29;100669.28;5037231;27;97459;-55
2023/09/19 08:01:52;;;;;;;8.67;1.87;;;;;;;19.86;56.13;100671.31;5033089;27;97341;-56
2023/09/19 08:04:19;;;;;;;4.93;1.40;;;;;;;19.90;55.99;100668.16;5039478;27;96595;-55
2023/09/19 08:06:44;;;;;;;4.77;1.20;;;;;;;19.98;56.19;100666.13;5037569;27;96885;-54
2023/09/19 08:09:11;;;;;;;4.10;1.40;;;;;;;20.01;56.01;100668.53;5035493;27;96737;-56
2023/09/19 08:11:36;;;;;;;4.20;1.73;;;;;;;20.04;55.91;100675.06;5038194;27;97097;-54
2023/09/19 08:14:02;;;;;;;3.40;1.43;;;;;;;20.09;55.79;100677.66;5036189;27;96821;-56
2023/09/19 08:16:27;;;;;;;5.53;1.57;;;;;;;20.20;55.91;100679.34;5035939;27;97823;-54
2023/09/19 08:18:55;;;;;;;3.10;1.40;;;;;;;20.25;55.39;100661.66;5034340;27;97478;-56
2023/09/19 08:21:23;;;;;;;4.60;1.53;;;;;;;20.28;55.40;100668.19;5036981;27;98800;-56
2023/09/19 08:23:48;;;;;;;9.33;1.90;;;;;;;20.29;55.17;100666.91;5039380;27;97565;-56
2023/09/19 08:26:14;;;;;;;3.87;1.70;;;;;;;20.30;55.17;100666.34;5036359;27;97392;-56
2023/09/19 08:28:40;;;;;;;2.97;1.30;;;;;;;20.34;55.09;100683.47;5035315;27;97506;-56
2023/09/19 08:31:10;;;;;;;3.67;1.30;;;;;;;20.39;55.04;100657.38;5035970;27;97591;-56
2023/09/19 08:33:37;;;;;;;2.93;1.37;;;;;;;20.46;54.83;100670.63;5038551;27;97234;-56
2023/09/19 08:36:04;;;;;;;3.17;1.30;;;;;;;20.50;54.74;100679.38;5038863;27;97417;-55
2023/09/19 08:38:32;;;;;;;2.93;1.20;;;;;;;20.53;54.51;100663.53;5035250;27;97409;-57
2023/09/19 08:41:02;;;;;;;3.57;1.33;;;;;;;20.60;54.56;100668.34;5033378;27;97870;-56
2023/09/19 08:43:27;;;;;;;2.63;1.30;;;;;;;20.70;54.52;100669.25;5040036;27;96827;-56
2023/09/19 08:46:03;;;;;;;5.07;1.70;;;;;;;20.78;53.70;100683.97;5041438;27;96936;-55
2023/09/19 08:48:29;;;;;;;4.63;1.50;;;;;;;20.81;54.24;100680.06;5037845;27;97019;-56
2023/09/19 08:51:05;;;;;;;5.47;1.50;;;;;;;20.84;54.08;100682.47;5037471;27;97279;-55
2023/09/19 08:53:48;;;;;;;4.03;1.43;;;;;;;20.96;53.41;100701.63;5035833;27;97221;-56
2023/09/19 08:56:17;;;;;;;3.47;1.37;;;;;;;20.99;53.17;100689.31;5038172;27;97284;-56
2023/09/19 08:58:51;;;;;;;6.00;1.67;;;;;;;21.03;53.35;100692.47;5035585;27;98905;-56
2023/09/19 09:01:24;;;;;;;3.73;1.53;;;;;;;21.12;53.79;100687.03;5038402;27;97155;-55
2023/09/19 09:03:51;;;;;;;4.77;1.50;;;;;;;21.21;53.44;100678.06;5035778;27;97269;-55
2023/09/19 09:06:18;;;;;;;3.90;1.37;;;;;;;21.21;53.16;100692.06;5036804;27;97696;-56
2023/09/19 09:08:44;;;;;;;5.57;1.60;;;;;;;21.26;53.36;100691.13;5036346;27;97255;-56
2023/09/19 09:11:11;;;;;;;2.57;1.17;;;;;;;21.31;52.88;100686.63;5032901;27;97200;-56
2023/09/19 09:13:37;;;;;;;3.50;1.07;;;;;;;21.27;52.86;100689.06;5037125;27;96810;-56
2023/09/19 09:16:02;;;;;;;2.40;1.20;;;;;;;21.24;52.59;100692.97;5038239;27;96988;-56
2023/09/19 09:18:32;;;;;;;2.60;1.20;;;;;;;21.29;52.68;100694.84;5035769;27;97171;-56
2023/09/19 09:20:57;;;;;;;2.43;1.00;;;;;;;21.33;52.45;100695.94;5035610;27;97027;-56
2023/09/19 09:23:23;;;;;;;2.13;1.30;;;;;;;21.36;52.19;100694.06;5032351;27;97182;-56
2023/09/19 09:26:06;;;;;;;2.60;0.97;;;;;;;21.46;52.18;100694.94;5035159;27;96992;-56
2023/09/19 09:28:35;;;;;;;2.57;1.23;;;;;;;21.53;52.14;100691.38;5042392;27;97681;-56
2023/09/19 09:31:02;;;;;;;2.40;1.23;;;;;;;21.54;51.72;100695.63;5037718;27;97083;-55
2023/09/19 09:33:28;;;;;;;1.97;1.10;;;;;;;21.54;51.80;100692.84;5035480;27;97295;-56
2023/09/19 09:36:02;;;;;;;2.77;1.50;;;;;;;21.59;51.62;100694.69;5037036;27;97268;-56
2023/09/19 09:38:45;;;;;;;3.70;1.10;;;;;;;21.59;50.60;100697.47;5038667;27;98008;-56
2023/09/19 09:41:15;;;;;;;6.40;1.37;;;;;;;21.55;51.40;100697.88;5038468;27;97164;-56
2023/09/19 09:43:44;;;;;;;3.67;1.13;;;;;;;21.54;51.59;100701.97;5038985;27;97077;-58
2023/09/19 09:49:18;;;;;;;2.20;1.17;;;;;;;21.54;50.15;100712.44;5035071;27;97303;-57
2023/09/19 09:52:08;;;;;;;2.47;1.07;;;;;;;21.54;51.52;100723.63;5037824;27;97512;-55
2023/09/19 09:54:37;;;;;;;3.40;1.27;;;;;;;21.53;51.19;100708.16;5041610;27;97539;-57
2023/09/19 09:57:25;;;;;;;2.57;0.93;;;;;;;21.56;50.56;100709.81;5040244;27;97118;-56
2023/09/19 10:02:39;;;;;;;3.73;1.13;;;;;;;21.64;51.22;100714.06;5039076;27;97328;-56
2023/09/19 10:05:28;;;;;;;1.60;0.97;;;;;;;21.70;50.71;100716.66;5035837;27;97328;-57
2023/09/19 10:08:00;;;;;;;3.57;1.27;;;;;;;21.67;50.92;100712.19;5038838;27;97061;-57
2023/09/19 10:13:13;;;;;;;3.40;1.60;;;;;;;21.70;51.16;100704.69;5037414;27;97429;-56
2023/09/19 10:15:50;;;;;;;2.23;1.30;;;;;;;21.69;50.93;100715.16;5040145;27;97343;-56
2023/09/19 10:18:20;;;;;;;2.00;1.40;;;;;;;21.66;50.90;100707.91;5037187;27;96777;-56
2023/09/19 10:20:48;;;;;;;2.27;1.70;;;;;;;21.65;50.94;100728.81;5036690;27;96817;-56
2023/09/19 10:23:22;;;;;;;3.83;1.10;;;;;;;21.67;50.73;100711.44;5041466;27;97127;-57
2023/09/19 10:25:48;;;;;;;2.30;1.50;;;;;;;21.70;50.80;100710.31;5038755;27;97182;-56
2023/09/19 10:28:15;;;;;;;2.70;1.23;;;;;;;21.79;50.83;100709.69;5038874;27;97244;-57
2023/09/19 10:30:46;;;;;;;3.53;1.80;;;;;;;21.89;50.27;100708.53;5036289;27;100809;-56
2023/09/19 10:33:13;;;;;;;3.83;1.50;;;;;;;21.91;50.27;100708.69;5039928;27;97184;-56
2023/09/19 10:35:44;;;;;;;2.07;1.30;;;;;;;21.94;50.29;100715.22;5038255;27;96817;-57
2023/09/19 10:38:11;;;;;;;6.63;1.60;;;;;;;21.97;50.32;100714.84;5036284;27;97310;-57
2023/09/19 10:40:40;;;;;;;4.83;1.83;;;;;;;22.05;50.25;100721.13;5039807;27;97664;-57
2023/09/19 10:43:06;;;;;;;2.80;1.47;;;;;;;22.02;49.96;100727.13;5036552;27;97182;-57
2023/09/19 10:45:38;;;;;;;3.57;1.60;;;;;;;22.02;50.02;100722.25;5039615;27;98044;-56
2023/09/19 10:48:05;;;;;;;5.00;1.67;;;;;;;22.01;49.77;100715.19;5039841;27;97444;-55
2023/09/19 10:50:44;;;;;;;2.37;1.50;;;;;;;22.08;49.33;100713.66;5036811;27;97923;-55
2023/09/19 10:53:12;;;;;;;4.20;1.43;;;;;;;22.15;49.99;100713.56;5036770;27;97202;-56
2023/09/19 10:55:37;;;;;;;4.80;1.50;;;;;;;22.27;49.59;100714.63;5039584;27;97047;-57
2023/09/19 10:58:14;;;;;;;2.90;1.43;;;;;;;22.29;49.65;100719.63;5038701;27;97934;-57
2023/09/19 11:01:12;;;;;;;3.90;2.00;;;;;;;22.32;48.53;100713.63;5045289;27;97582;-56
2023/09/19 11:03:43;;;;;;;5.40;2.10;;;;;;;22.26;49.60;100718.72;5038355;27;97746;-56
2023/09/19 11:06:18;;;;;;;4.77;1.53;;;;;;;22.23;49.12;100713.53;5038913;27;96764;-57
2023/09/19 11:11:40;;;;;;;2.40;1.40;;;;;;;22.29;49.10;100706.38;5035446;27;97324;-56
2023/09/19 11:14:28;;;;;;;2.70;1.50;;;;;;;22.38;48.60;100716.97;5036655;27;99773;-56
2023/09/19 11:17:06;;;;;;;3.27;1.80;;;;;;;22.34;48.29;100716.59;5036583;27;97446;-56
2023/09/19 11:22:48;;;;;;;3.33;1.70;;;;;;;22.38;48.56;100713.41;5034705;27;97457;-58
2023/09/19 11:25:39;;;;;;;3.83;1.17;;;;;;;22.41;48.70;100711.50;5039428;27;97096;-56
2023/09/19 11:28:15;;;;;;;3.97;1.60;;;;;;;22.47;48.69;100712.00;5037695;27;97605;-56
2023/09/19 11:30:45;;;;;;;3.33;1.83;;;;;;;22.53;48.70;100706.91;5038408;27;97000;-57
2023/09/19 11:33:33;;;;;;;3.23;1.90;;;;;;;22.65;47.61;100710.75;5036648;27;97500;-56
2023/09/19 11:36:15;;;;;;;4.63;1.87;;;;;;;22.74;47.54;100718.50;5037379;27;98058;-56
2023/09/19 11:38:49;;;;;;;9.67;2.20;;;;;;;22.75;47.98;100706.72;5040352;27;97370;-56
2023/09/19 11:41:30;;;;;;;4.70;2.13;;;;;;;22.75;47.70;100703.91;5041966;27;96951;-57
2023/09/19 11:44:00;;;;;;;3.90;1.70;;;;;;;22.80;47.74;100708.53;5038470;27;97424;-57
2023/09/19 11:46:27;;;;;;;3.57;1.70;;;;;;;22.89;47.83;100707.88;5041571;27;97121;-57
2023/09/19 11:48:53;;;;;;;4.10;1.50;;;;;;;22.96;47.73;100715.47;5040149;27;99262;-56